sensor_id;sensor_type;location;lat;lon;timestamp;P1;durP1;ratioP1;P2;durP2;ratioP2
16642;SDS011;8435;52.184;5.406;2022-07-04T00:01:16;2.63;;;1.33;;
16642;SDS011;8435;52.184;5.406;2022-07-04T00:03:42;2.23;;;1.43;;
16642;SDS011;8435;52.184;5.406;2022-07-04T00:06:09;1.93;;;1.37;;
16642;SDS011;8435;52.184;5.406;2022-07-04T00:08:36;2.37;;;1.50;;
16642;SDS011;8435;52.184;5.406;2022-07-04T00:11:02;3.23;;;1.43;;
16642;SDS011;8435;52.184;5.406;2022-07-04T00:13:31;2.07;;;1.37;;
16642;SDS011;8435;52.184;5.406;2022-07-04T00:15:57;3.27;;;1.47;;
16642;SDS011;8435;52.184;5.406;2022-07-04T00:18:24;2.20;;;1.47;;
16642;SDS011;8435;52.184;5.406;2022-07-04T00:20:51;1.70;;;1.20;;
16642;SDS011;8435;52.184;5.406;2022-07-04T00:23:18;2.03;;;1.30;;
16642;SDS011;8435;52.184;5.406;2022-07-04T00:25:45;1.60;;;1.50;;
16642;SDS011;8435;52.184;5.406;2022-07-04T00:28:12;1.83;;;1.30;;
16642;SDS011;8435;52.184;5.406;2022-07-04T00:30:40;1.33;;;1.20;;
16642;SDS011;8435;52.184;5.406;2022-07-04T00:33:10;5.33;;;1.60;;
16642;SDS011;8435;52.184;5.406;2022-07-04T00:35:37;2.47;;;1.77;;
16642;SDS011;8435;52.184;5.406;2022-07-04T00:38:04;1.70;;;1.33;;
16642;SDS011;8435;52.184;5.406;2022-07-04T00:40:30;3.13;;;1.20;;
16642;SDS011;8435;52.184;5.406;2022-07-04T00:42:59;1.57;;;1.30;;
16642;SDS011;8435;52.184;5.406;2022-07-04T00:45:27;2.03;;;1.30;;
16642;SDS011;8435;52.184;5.406;2022-07-04T00:47:55;1.97;;;1.23;;
16642;SDS011;8435;52.184;5.406;2022-07-04T00:50:22;3.77;;;1.70;;
16642;SDS011;8435;52.184;5.406;2022-07-04T00:52:50;2.43;;;1.30;;
16642;SDS011;8435;52.184;5.406;2022-07-04T00:55:18;2.67;;;1.30;;
16642;SDS011;8435;52.184;5.406;2022-07-04T00:57:45;1.57;;;1.47;;
16642;SDS011;8435;52.184;5.406;2022-07-04T01:00:12;3.23;;;1.37;;
16642;SDS011;8435;52.184;5.406;2022-07-04T01:02:39;2.60;;;1.60;;
16642;SDS011;8435;52.184;5.406;2022-07-04T01:05:08;1.93;;;1.37;;
16642;SDS011;8435;52.184;5.406;2022-07-04T01:07:35;2.27;;;1.70;;
16642;SDS011;8435;52.184;5.406;2022-07-04T01:10:02;2.93;;;1.37;;
16642;SDS011;8435;52.184;5.406;2022-07-04T01:12:29;2.00;;;1.40;;
16642;SDS011;8435;52.184;5.406;2022-07-04T01:14:57;2.03;;;1.53;;
16642;SDS011;8435;52.184;5.406;2022-07-04T01:17:24;1.40;;;1.17;;
16642;SDS011;8435;52.184;5.406;2022-07-04T01:19:51;3.57;;;1.20;;
16642;SDS011;8435;52.184;5.406;2022-07-04T01:22:19;2.10;;;1.50;;
16642;SDS011;8435;52.184;5.406;2022-07-04T01:24:47;3.00;;;1.50;;
16642;SDS011;8435;52.184;5.406;2022-07-04T01:27:14;3.77;;;1.50;;
16642;SDS011;8435;52.184;5.406;2022-07-04T01:29:41;2.17;;;1.37;;
16642;SDS011;8435;52.184;5.406;2022-07-04T01:32:08;2.83;;;1.57;;
16642;SDS011;8435;52.184;5.406;2022-07-04T01:34:36;1.60;;;1.27;;
16642;SDS011;8435;52.184;5.406;2022-07-04T01:37:04;1.30;;;1.20;;
16642;SDS011;8435;52.184;5.406;2022-07-04T01:39:32;1.93;;;1.47;;
16642;SDS011;8435;52.184;5.406;2022-07-04T01:41:59;2.13;;;1.30;;
16642;SDS011;8435;52.184;5.406;2022-07-04T01:44:26;1.87;;;1.30;;
16642;SDS011;8435;52.184;5.406;2022-07-04T01:46:53;1.93;;;1.60;;
16642;SDS011;8435;52.184;5.406;2022-07-04T01:49:20;2.50;;;1.73;;
16642;SDS011;8435;52.184;5.406;2022-07-04T01:51:47;1.70;;;1.43;;
16642;SDS011;8435;52.184;5.406;2022-07-04T01:54:16;2.73;;;1.47;;
16642;SDS011;8435;52.184;5.406;2022-07-04T01:56:44;2.20;;;1.60;;
16642;SDS011;8435;52.184;5.406;2022-07-04T01:59:11;2.00;;;1.50;;
16642;SDS011;8435;52.184;5.406;2022-07-04T02:01:38;3.13;;;1.53;;
16642;SDS011;8435;52.184;5.406;2022-07-04T02:04:04;1.80;;;1.53;;
16642;SDS011;8435;52.184;5.406;2022-07-04T02:06:32;1.80;;;1.70;;
16642;SDS011;8435;52.184;5.406;2022-07-04T02:09:00;3.37;;;2.00;;
16642;SDS011;8435;52.184;5.406;2022-07-04T02:11:42;3.30;;;1.90;;
16642;SDS011;8435;52.184;5.406;2022-07-04T02:14:29;3.50;;;2.10;;
16642;SDS011;8435;52.184;5.406;2022-07-04T02:16:56;2.17;;;1.70;;
16642;SDS011;8435;52.184;5.406;2022-07-04T02:19:23;3.70;;;2.10;;
16642;SDS011;8435;52.184;5.406;2022-07-04T02:21:50;2.67;;;2.00;;
16642;SDS011;8435;52.184;5.406;2022-07-04T02:24:17;3.73;;;1.97;;
16642;SDS011;8435;52.184;5.406;2022-07-04T02:26:46;2.13;;;1.93;;
16642;SDS011;8435;52.184;5.406;2022-07-04T02:29:13;4.03;;;1.97;;
16642;SDS011;8435;52.184;5.406;2022-07-04T02:31:39;3.13;;;2.33;;
16642;SDS011;8435;52.184;5.406;2022-07-04T02:34:06;2.43;;;2.00;;
16642;SDS011;8435;52.184;5.406;2022-07-04T02:36:33;4.43;;;2.23;;
16642;SDS011;8435;52.184;5.406;2022-07-04T02:39:00;3.17;;;2.77;;
16642;SDS011;8435;52.184;5.406;2022-07-04T02:41:27;2.77;;;1.90;;
16642;SDS011;8435;52.184;5.406;2022-07-04T02:43:56;3.00;;;2.20;;
16642;SDS011;8435;52.184;5.406;2022-07-04T02:46:22;3.37;;;2.30;;
16642;SDS011;8435;52.184;5.406;2022-07-04T02:48:49;3.83;;;2.10;;
16642;SDS011;8435;52.184;5.406;2022-07-04T02:51:16;4.33;;;2.27;;
16642;SDS011;8435;52.184;5.406;2022-07-04T02:53:43;2.57;;;2.17;;
16642;SDS011;8435;52.184;5.406;2022-07-04T02:56:09;3.50;;;2.20;;
16642;SDS011;8435;52.184;5.406;2022-07-04T02:58:36;2.50;;;2.30;;
16642;SDS011;8435;52.184;5.406;2022-07-04T03:01:05;3.80;;;2.00;;
16642;SDS011;8435;52.184;5.406;2022-07-04T03:03:31;3.77;;;2.13;;
16642;SDS011;8435;52.184;5.406;2022-07-04T03:05:58;2.13;;;2.03;;
16642;SDS011;8435;52.184;5.406;2022-07-04T03:08:25;2.77;;;2.50;;
16642;SDS011;8435;52.184;5.406;2022-07-04T03:10:52;2.50;;;2.30;;
16642;SDS011;8435;52.184;5.406;2022-07-04T03:13:19;2.73;;;2.53;;
16642;SDS011;8435;52.184;5.406;2022-07-04T03:15:46;4.30;;;2.77;;
16642;SDS011;8435;52.184;5.406;2022-07-04T03:18:14;2.40;;;2.20;;
16642;SDS011;8435;52.184;5.406;2022-07-04T03:20:41;2.73;;;2.53;;
16642;SDS011;8435;52.184;5.406;2022-07-04T03:23:08;3.47;;;2.50;;
16642;SDS011;8435;52.184;5.406;2022-07-04T03:25:35;3.00;;;2.70;;
16642;SDS011;8435;52.184;5.406;2022-07-04T03:28:02;3.53;;;2.67;;
16642;SDS011;8435;52.184;5.406;2022-07-04T03:30:29;3.03;;;2.67;;
16642;SDS011;8435;52.184;5.406;2022-07-04T03:32:56;3.10;;;2.80;;
16642;SDS011;8435;52.184;5.406;2022-07-04T03:35:24;2.63;;;2.43;;
16642;SDS011;8435;52.184;5.406;2022-07-04T03:37:51;5.13;;;2.67;;
16642;SDS011;8435;52.184;5.406;2022-07-04T03:40:18;2.63;;;2.43;;
16642;SDS011;8435;52.184;5.406;2022-07-04T03:42:45;3.50;;;2.60;;
16642;SDS011;8435;52.184;5.406;2022-07-04T03:45:12;2.77;;;2.50;;
16642;SDS011;8435;52.184;5.406;2022-07-04T03:47:39;3.13;;;2.80;;
16642;SDS011;8435;52.184;5.406;2022-07-04T03:50:06;3.67;;;2.53;;
16642;SDS011;8435;52.184;5.406;2022-07-04T03:52:35;3.27;;;2.33;;
16642;SDS011;8435;52.184;5.406;2022-07-04T03:55:02;3.80;;;3.00;;
16642;SDS011;8435;52.184;5.406;2022-07-04T03:57:29;3.87;;;2.70;;
16642;SDS011;8435;52.184;5.406;2022-07-04T03:59:56;3.43;;;3.10;;
16642;SDS011;8435;52.184;5.406;2022-07-04T04:02:23;2.87;;;2.53;;
16642;SDS011;8435;52.184;5.406;2022-07-04T04:04:49;4.10;;;3.70;;
16642;SDS011;8435;52.184;5.406;2022-07-04T04:07:35;3.70;;;3.20;;
16642;SDS011;8435;52.184;5.406;2022-07-04T04:10:02;4.13;;;3.03;;
16642;SDS011;8435;52.184;5.406;2022-07-04T04:12:29;3.97;;;3.60;;
16642;SDS011;8435;52.184;5.406;2022-07-04T04:14:56;4.23;;;3.80;;
16642;SDS011;8435;52.184;5.406;2022-07-04T04:17:23;3.97;;;3.50;;
16642;SDS011;8435;52.184;5.406;2022-07-04T04:19:50;4.40;;;3.47;;
16642;SDS011;8435;52.184;5.406;2022-07-04T04:22:16;4.30;;;3.80;;
16642;SDS011;8435;52.184;5.406;2022-07-04T04:24:45;3.83;;;3.30;;
16642;SDS011;8435;52.184;5.406;2022-07-04T04:27:11;3.70;;;3.40;;
16642;SDS011;8435;52.184;5.406;2022-07-04T04:29:38;4.60;;;3.83;;
16642;SDS011;8435;52.184;5.406;2022-07-04T04:32:05;4.10;;;3.70;;
16642;SDS011;8435;52.184;5.406;2022-07-04T04:34:33;3.87;;;3.53;;
16642;SDS011;8435;52.184;5.406;2022-07-04T04:37:00;4.03;;;3.63;;
16642;SDS011;8435;52.184;5.406;2022-07-04T04:39:26;4.13;;;3.80;;
16642;SDS011;8435;52.184;5.406;2022-07-04T04:41:55;8.27;;;4.30;;
16642;SDS011;8435;52.184;5.406;2022-07-04T04:44:22;5.00;;;3.97;;
16642;SDS011;8435;52.184;5.406;2022-07-04T04:46:49;5.70;;;3.97;;
16642;SDS011;8435;52.184;5.406;2022-07-04T04:49:16;4.03;;;3.73;;
16642;SDS011;8435;52.184;5.406;2022-07-04T04:51:43;4.13;;;3.73;;
16642;SDS011;8435;52.184;5.406;2022-07-04T04:54:10;6.77;;;4.70;;
16642;SDS011;8435;52.184;5.406;2022-07-04T04:56:37;5.23;;;3.83;;
16642;SDS011;8435;52.184;5.406;2022-07-04T04:59:05;5.47;;;4.93;;
16642;SDS011;8435;52.184;5.406;2022-07-04T05:01:32;6.00;;;4.33;;
16642;SDS011;8435;52.184;5.406;2022-07-04T05:03:59;4.60;;;4.17;;
16642;SDS011;8435;52.184;5.406;2022-07-04T05:06:26;6.80;;;4.20;;
16642;SDS011;8435;52.184;5.406;2022-07-04T05:08:53;4.10;;;3.70;;
16642;SDS011;8435;52.184;5.406;2022-07-04T05:11:20;4.63;;;4.00;;
16642;SDS011;8435;52.184;5.406;2022-07-04T05:13:46;4.10;;;3.53;;
16642;SDS011;8435;52.184;5.406;2022-07-04T05:16:15;5.07;;;4.00;;
16642;SDS011;8435;52.184;5.406;2022-07-04T05:18:41;4.33;;;3.77;;
16642;SDS011;8435;52.184;5.406;2022-07-04T05:21:08;4.93;;;3.50;;
16642;SDS011;8435;52.184;5.406;2022-07-04T05:23:35;3.93;;;3.33;;
16642;SDS011;8435;52.184;5.406;2022-07-04T05:26:02;4.10;;;3.60;;
16642;SDS011;8435;52.184;5.406;2022-07-04T05:28:28;6.63;;;3.43;;
16642;SDS011;8435;52.184;5.406;2022-07-04T05:30:55;3.87;;;3.43;;
16642;SDS011;8435;52.184;5.406;2022-07-04T05:33:23;7.67;;;5.43;;
16642;SDS011;8435;52.184;5.406;2022-07-04T05:35:50;6.60;;;4.13;;
16642;SDS011;8435;52.184;5.406;2022-07-04T05:38:17;4.17;;;3.20;;
16642;SDS011;8435;52.184;5.406;2022-07-04T05:40:44;3.77;;;3.10;;
16642;SDS011;8435;52.184;5.406;2022-07-04T05:43:10;4.43;;;3.13;;
16642;SDS011;8435;52.184;5.406;2022-07-04T05:45:37;4.00;;;3.30;;
16642;SDS011;8435;52.184;5.406;2022-07-04T05:48:04;5.67;;;2.70;;
16642;SDS011;8435;52.184;5.406;2022-07-04T05:50:33;6.53;;;4.88;;
16642;SDS011;8435;52.184;5.406;2022-07-04T05:53:00;6.25;;;4.85;;
16642;SDS011;8435;52.184;5.406;2022-07-04T05:55:26;5.43;;;3.65;;
16642;SDS011;8435;52.184;5.406;2022-07-04T05:57:53;5.72;;;2.80;;
16642;SDS011;8435;52.184;5.406;2022-07-04T06:00:20;4.90;;;2.80;;
16642;SDS011;8435;52.184;5.406;2022-07-04T06:02:47;4.78;;;2.35;;
16642;SDS011;8435;52.184;5.406;2022-07-04T06:05:13;3.80;;;2.47;;
16642;SDS011;8435;52.184;5.406;2022-07-04T06:07:42;4.63;;;2.58;;
16642;SDS011;8435;52.184;5.406;2022-07-04T06:10:09;2.95;;;2.20;;
16642;SDS011;8435;52.184;5.406;2022-07-04T06:12:36;5.38;;;2.42;;
16642;SDS011;8435;52.184;5.406;2022-07-04T06:15:03;3.33;;;2.53;;
16642;SDS011;8435;52.184;5.406;2022-07-04T06:17:31;3.38;;;2.10;;
16642;SDS011;8435;52.184;5.406;2022-07-04T06:19:58;3.78;;;2.78;;
16642;SDS011;8435;52.184;5.406;2022-07-04T06:22:25;5.07;;;2.65;;
16642;SDS011;8435;52.184;5.406;2022-07-04T06:24:53;4.30;;;3.05;;
16642;SDS011;8435;52.184;5.406;2022-07-04T06:27:20;5.60;;;2.67;;
16642;SDS011;8435;52.184;5.406;2022-07-04T06:29:47;4.40;;;2.35;;
16642;SDS011;8435;52.184;5.406;2022-07-04T06:32:13;4.00;;;3.03;;
16642;SDS011;8435;52.184;5.406;2022-07-04T06:34:40;2.97;;;2.67;;
16642;SDS011;8435;52.184;5.406;2022-07-04T06:37:36;4.63;;;2.53;;
16642;SDS011;8435;52.184;5.406;2022-07-04T06:40:05;4.05;;;2.50;;
16642;SDS011;8435;52.184;5.406;2022-07-04T06:42:33;2.85;;;2.58;;
16642;SDS011;8435;52.184;5.406;2022-07-04T06:45:00;4.68;;;2.95;;
16642;SDS011;8435;52.184;5.406;2022-07-04T06:47:26;5.03;;;2.83;;
16642;SDS011;8435;52.184;5.406;2022-07-04T06:49:53;2.70;;;2.50;;
16642;SDS011;8435;52.184;5.406;2022-07-04T06:52:20;3.55;;;2.83;;
16642;SDS011;8435;52.184;5.406;2022-07-04T06:54:46;3.40;;;2.63;;
16642;SDS011;8435;52.184;5.406;2022-07-04T06:57:15;3.13;;;2.45;;
16642;SDS011;8435;52.184;5.406;2022-07-04T06:59:41;5.18;;;2.65;;
16642;SDS011;8435;52.184;5.406;2022-07-04T07:02:08;5.18;;;3.22;;
16642;SDS011;8435;52.184;5.406;2022-07-04T07:04:35;3.85;;;2.20;;
16642;SDS011;8435;52.184;5.406;2022-07-04T07:07:03;3.60;;;2.65;;
16642;SDS011;8435;52.184;5.406;2022-07-04T07:09:29;3.50;;;2.28;;
16642;SDS011;8435;52.184;5.406;2022-07-04T07:11:56;4.57;;;2.42;;
16642;SDS011;8435;52.184;5.406;2022-07-04T07:14:24;5.65;;;2.30;;
16642;SDS011;8435;52.184;5.406;2022-07-04T07:16:51;3.17;;;2.42;;
16642;SDS011;8435;52.184;5.406;2022-07-04T07:19:18;2.60;;;2.20;;
16642;SDS011;8435;52.184;5.406;2022-07-04T07:21:45;3.20;;;2.10;;
16642;SDS011;8435;52.184;5.406;2022-07-04T07:24:11;4.15;;;2.35;;
16642;SDS011;8435;52.184;5.406;2022-07-04T07:26:38;2.65;;;1.80;;
16642;SDS011;8435;52.184;5.406;2022-07-04T07:29:05;3.67;;;2.15;;
16642;SDS011;8435;52.184;5.406;2022-07-04T07:31:33;2.83;;;2.53;;
16642;SDS011;8435;52.184;5.406;2022-07-04T07:34:00;2.78;;;2.05;;
16642;SDS011;8435;52.184;5.406;2022-07-04T07:36:27;3.72;;;2.13;;
16642;SDS011;8435;52.184;5.406;2022-07-04T07:38:54;3.67;;;2.13;;
16642;SDS011;8435;52.184;5.406;2022-07-04T07:41:21;5.88;;;2.30;;
16642;SDS011;8435;52.184;5.406;2022-07-04T07:43:47;2.55;;;1.55;;
16642;SDS011;8435;52.184;5.406;2022-07-04T07:46:14;3.30;;;1.60;;
16642;SDS011;8435;52.184;5.406;2022-07-04T07:48:45;2.20;;;1.65;;
16642;SDS011;8435;52.184;5.406;2022-07-04T07:51:20;3.97;;;1.83;;
16642;SDS011;8435;52.184;5.406;2022-07-04T07:53:50;2.28;;;1.42;;
16642;SDS011;8435;52.184;5.406;2022-07-04T07:56:17;2.33;;;1.30;;
16642;SDS011;8435;52.184;5.406;2022-07-04T07:58:44;2.50;;;1.60;;
16642;SDS011;8435;52.184;5.406;2022-07-04T08:01:10;2.70;;;1.50;;
16642;SDS011;8435;52.184;5.406;2022-07-04T08:03:37;1.60;;;1.50;;
16642;SDS011;8435;52.184;5.406;2022-07-04T08:06:23;2.78;;;1.50;;
16642;SDS011;8435;52.184;5.406;2022-07-04T08:08:50;2.63;;;1.75;;
16642;SDS011;8435;52.184;5.406;2022-07-04T08:11:17;3.00;;;1.40;;
16642;SDS011;8435;52.184;5.406;2022-07-04T08:13:48;3.88;;;1.70;;
16642;SDS011;8435;52.184;5.406;2022-07-04T08:16:15;2.88;;;1.60;;
16642;SDS011;8435;52.184;5.406;2022-07-04T08:18:42;3.30;;;1.52;;
16642;SDS011;8435;52.184;5.406;2022-07-04T08:21:09;1.77;;;1.50;;
16642;SDS011;8435;52.184;5.406;2022-07-04T08:23:37;2.67;;;1.33;;
16642;SDS011;8435;52.184;5.406;2022-07-04T08:26:04;1.23;;;0.98;;
16642;SDS011;8435;52.184;5.406;2022-07-04T08:28:30;1.48;;;1.10;;
16642;SDS011;8435;52.184;5.406;2022-07-04T08:30:58;3.75;;;1.38;;
16642;SDS011;8435;52.184;5.406;2022-07-04T08:33:25;2.30;;;1.50;;
16642;SDS011;8435;52.184;5.406;2022-07-04T08:35:52;4.53;;;1.75;;
16642;SDS011;8435;52.184;5.406;2022-07-04T08:38:19;3.35;;;1.30;;
16642;SDS011;8435;52.184;5.406;2022-07-04T08:40:48;1.80;;;1.02;;
16642;SDS011;8435;52.184;5.406;2022-07-04T08:43:16;2.20;;;1.50;;
16642;SDS011;8435;52.184;5.406;2022-07-04T08:45:48;1.23;;;1.13;;
16642;SDS011;8435;52.184;5.406;2022-07-04T08:48:18;1.30;;;1.10;;
16642;SDS011;8435;52.184;5.406;2022-07-04T08:50:51;1.60;;;1.50;;
16642;SDS011;8435;52.184;5.406;2022-07-04T08:53:22;2.13;;;1.13;;
16642;SDS011;8435;52.184;5.406;2022-07-04T08:55:55;1.20;;;1.10;;
16642;SDS011;8435;52.184;5.406;2022-07-04T08:58:40;1.45;;;1.20;;
16642;SDS011;8435;52.184;5.406;2022-07-04T09:01:10;0.90;;;0.90;;
16642;SDS011;8435;52.184;5.406;2022-07-04T09:03:40;1.85;;;1.30;;
16642;SDS011;8435;52.184;5.406;2022-07-04T09:06:08;1.58;;;1.08;;
16642;SDS011;8435;52.184;5.406;2022-07-04T09:08:35;3.55;;;1.80;;
16642;SDS011;8435;52.184;5.406;2022-07-04T09:11:04;2.22;;;1.45;;
16642;SDS011;8435;52.184;5.406;2022-07-04T09:13:31;1.33;;;1.17;;
16642;SDS011;8435;52.184;5.406;2022-07-04T09:15:58;1.67;;;1.17;;
16642;SDS011;8435;52.184;5.406;2022-07-04T09:18:27;1.05;;;1.00;;
16642;SDS011;8435;52.184;5.406;2022-07-04T09:20:55;2.03;;;1.20;;
16642;SDS011;8435;52.184;5.406;2022-07-04T09:23:24;1.05;;;1.00;;
16642;SDS011;8435;52.184;5.406;2022-07-04T09:26:07;1.30;;;1.20;;
16642;SDS011;8435;52.184;5.406;2022-07-04T09:28:36;2.00;;;1.25;;
16642;SDS011;8435;52.184;5.406;2022-07-04T09:31:12;1.40;;;1.30;;
16642;SDS011;8435;52.184;5.406;2022-07-04T09:33:43;1.73;;;1.33;;
16642;SDS011;8435;52.184;5.406;2022-07-04T09:36:16;1.10;;;1.10;;
16642;SDS011;8435;52.184;5.406;2022-07-04T09:38:44;4.70;;;1.40;;
16642;SDS011;8435;52.184;5.406;2022-07-04T09:41:13;2.75;;;1.27;;
16642;SDS011;8435;52.184;5.406;2022-07-04T09:44:01;1.77;;;1.00;;
16642;SDS011;8435;52.184;5.406;2022-07-04T09:46:30;1.15;;;1.05;;
16642;SDS011;8435;52.184;5.406;2022-07-04T09:49:00;1.40;;;1.30;;
16642;SDS011;8435;52.184;5.406;2022-07-04T09:51:37;0.85;;;0.85;;
16642;SDS011;8435;52.184;5.406;2022-07-04T09:54:15;0.80;;;0.80;;
16642;SDS011;8435;52.184;5.406;2022-07-04T09:56:53;2.47;;;1.02;;
16642;SDS011;8435;52.184;5.406;2022-07-04T09:59:21;0.90;;;0.90;;
16642;SDS011;8435;52.184;5.406;2022-07-04T10:01:48;1.35;;;1.20;;
16642;SDS011;8435;52.184;5.406;2022-07-04T10:04:16;2.13;;;1.40;;
16642;SDS011;8435;52.184;5.406;2022-07-04T10:06:46;1.92;;;1.35;;
16642;SDS011;8435;52.184;5.406;2022-07-04T10:09:13;0.98;;;0.90;;
16642;SDS011;8435;52.184;5.406;2022-07-04T10:11:42;2.33;;;1.17;;
16642;SDS011;8435;52.184;5.406;2022-07-04T10:14:11;1.77;;;1.40;;
16642;SDS011;8435;52.184;5.406;2022-07-04T10:16:40;2.03;;;1.30;;
16642;SDS011;8435;52.184;5.406;2022-07-04T10:19:07;1.33;;;1.23;;
16642;SDS011;8435;52.184;5.406;2022-07-04T10:21:35;1.77;;;1.13;;
16642;SDS011;8435;52.184;5.406;2022-07-04T10:24:01;2.35;;;1.20;;
16642;SDS011;8435;52.184;5.406;2022-07-04T10:26:29;1.40;;;1.33;;
16642;SDS011;8435;52.184;5.406;2022-07-04T10:28:57;1.30;;;1.20;;
16642;SDS011;8435;52.184;5.406;2022-07-04T10:31:27;3.25;;;0.90;;
16642;SDS011;8435;52.184;5.406;2022-07-04T10:33:56;1.20;;;0.95;;
16642;SDS011;8435;52.184;5.406;2022-07-04T10:36:25;1.55;;;1.05;;
16642;SDS011;8435;52.184;5.406;2022-07-04T10:38:55;1.10;;;1.00;;
16642;SDS011;8435;52.184;5.406;2022-07-04T10:41:23;0.90;;;0.90;;
16642;SDS011;8435;52.184;5.406;2022-07-04T10:43:52;1.08;;;1.00;;
16642;SDS011;8435;52.184;5.406;2022-07-04T10:46:45;1.23;;;1.00;;
16642;SDS011;8435;52.184;5.406;2022-07-04T10:49:20;1.15;;;0.90;;
16642;SDS011;8435;52.184;5.406;2022-07-04T10:51:52;1.40;;;1.20;;
16642;SDS011;8435;52.184;5.406;2022-07-04T10:54:21;1.25;;;1.10;;
16642;SDS011;8435;52.184;5.406;2022-07-04T10:56:55;3.25;;;1.25;;
16642;SDS011;8435;52.184;5.406;2022-07-04T10:59:23;1.35;;;0.90;;
16642;SDS011;8435;52.184;5.406;2022-07-04T11:02:08;1.88;;;1.23;;
16642;SDS011;8435;52.184;5.406;2022-07-04T11:04:56;0.77;;;0.77;;
16642;SDS011;8435;52.184;5.406;2022-07-04T11:10:22;1.45;;;1.15;;
16642;SDS011;8435;52.184;5.406;2022-07-04T11:15:57;4.07;;;1.27;;
16642;SDS011;8435;52.184;5.406;2022-07-04T11:18:39;1.65;;;1.27;;
16642;SDS011;8435;52.184;5.406;2022-07-04T11:21:16;1.13;;;1.00;;
16642;SDS011;8435;52.184;5.406;2022-07-04T11:23:49;0.93;;;0.93;;
16642;SDS011;8435;52.184;5.406;2022-07-04T11:26:19;1.20;;;0.95;;
16642;SDS011;8435;52.184;5.406;2022-07-04T11:28:47;1.92;;;1.00;;
16642;SDS011;8435;52.184;5.406;2022-07-04T11:31:14;1.17;;;1.08;;
16642;SDS011;8435;52.184;5.406;2022-07-04T11:33:42;1.85;;;1.13;;
16642;SDS011;8435;52.184;5.406;2022-07-04T11:36:11;0.88;;;0.88;;
16642;SDS011;8435;52.184;5.406;2022-07-04T11:38:43;0.88;;;0.88;;
16642;SDS011;8435;52.184;5.406;2022-07-04T11:41:24;1.80;;;0.95;;
16642;SDS011;8435;52.184;5.406;2022-07-04T11:44:10;1.30;;;1.02;;
16642;SDS011;8435;52.184;5.406;2022-07-04T11:47:03;1.63;;;1.10;;
16642;SDS011;8435;52.184;5.406;2022-07-04T11:49:34;1.10;;;1.00;;
16642;SDS011;8435;52.184;5.406;2022-07-04T11:52:00;1.88;;;1.05;;
16642;SDS011;8435;52.184;5.406;2022-07-04T11:54:28;1.80;;;1.40;;
16642;SDS011;8435;52.184;5.406;2022-07-04T11:59:51;1.52;;;1.00;;
16642;SDS011;8435;52.184;5.406;2022-07-04T12:02:23;1.00;;;1.00;;
16642;SDS011;8435;52.184;5.406;2022-07-04T12:04:51;2.42;;;1.30;;
16642;SDS011;8435;52.184;5.406;2022-07-04T12:07:19;0.85;;;0.85;;
16642;SDS011;8435;52.184;5.406;2022-07-04T12:09:48;1.50;;;1.00;;
16642;SDS011;8435;52.184;5.406;2022-07-04T12:12:15;2.28;;;1.00;;
16642;SDS011;8435;52.184;5.406;2022-07-04T12:14:56;1.40;;;0.93;;
16642;SDS011;8435;52.184;5.406;2022-07-04T12:17:28;0.85;;;0.77;;
16642;SDS011;8435;52.184;5.406;2022-07-04T12:19:59;1.02;;;0.90;;
16642;SDS011;8435;52.184;5.406;2022-07-04T12:22:28;1.33;;;1.00;;
16642;SDS011;8435;52.184;5.406;2022-07-04T12:25:00;1.08;;;0.80;;
16642;SDS011;8435;52.184;5.406;2022-07-04T12:27:28;1.75;;;0.90;;
16642;SDS011;8435;52.184;5.406;2022-07-04T12:29:56;1.23;;;0.95;;
16642;SDS011;8435;52.184;5.406;2022-07-04T12:32:24;1.50;;;1.20;;
16642;SDS011;8435;52.184;5.406;2022-07-04T12:35:15;1.77;;;0.90;;
16642;SDS011;8435;52.184;5.406;2022-07-04T12:38:02;0.80;;;0.80;;
16642;SDS011;8435;52.184;5.406;2022-07-04T12:40:29;0.80;;;0.80;;
16642;SDS011;8435;52.184;5.406;2022-07-04T12:42:57;0.80;;;0.80;;
16642;SDS011;8435;52.184;5.406;2022-07-04T12:45:24;1.23;;;1.13;;
16642;SDS011;8435;52.184;5.406;2022-07-04T12:47:52;1.85;;;1.08;;
16642;SDS011;8435;52.184;5.406;2022-07-04T12:50:25;1.17;;;1.08;;
16642;SDS011;8435;52.184;5.406;2022-07-04T12:52:53;1.00;;;1.00;;
16642;SDS011;8435;52.184;5.406;2022-07-04T12:55:19;1.83;;;1.10;;
16642;SDS011;8435;52.184;5.406;2022-07-04T12:57:46;1.88;;;0.93;;
16642;SDS011;8435;52.184;5.406;2022-07-04T13:00:13;0.98;;;0.98;;
16642;SDS011;8435;52.184;5.406;2022-07-04T13:02:40;1.13;;;1.05;;
16642;SDS011;8435;52.184;5.406;2022-07-04T13:05:07;2.22;;;1.00;;
16642;SDS011;8435;52.184;5.406;2022-07-04T13:07:35;1.65;;;0.88;;
16642;SDS011;8435;52.184;5.406;2022-07-04T13:10:02;1.10;;;1.00;;
16642;SDS011;8435;52.184;5.406;2022-07-04T13:12:30;0.90;;;0.90;;
16642;SDS011;8435;52.184;5.406;2022-07-04T13:14:57;0.75;;;0.75;;
16642;SDS011;8435;52.184;5.406;2022-07-04T13:17:25;0.90;;;0.90;;
16642;SDS011;8435;52.184;5.406;2022-07-04T13:19:52;1.38;;;1.17;;
16642;SDS011;8435;52.184;5.406;2022-07-04T13:22:19;1.20;;;1.10;;
16642;SDS011;8435;52.184;5.406;2022-07-04T13:24:49;1.60;;;1.50;;
16642;SDS011;8435;52.184;5.406;2022-07-04T13:27:17;3.67;;;1.40;;
16642;SDS011;8435;52.184;5.406;2022-07-04T13:29:44;1.20;;;1.10;;
16642;SDS011;8435;52.184;5.406;2022-07-04T13:32:11;1.08;;;0.98;;
16642;SDS011;8435;52.184;5.406;2022-07-04T13:34:38;2.70;;;0.98;;
16642;SDS011;8435;52.184;5.406;2022-07-04T13:37:05;1.00;;;0.80;;
16642;SDS011;8435;52.184;5.406;2022-07-04T13:39:32;1.20;;;0.77;;
16642;SDS011;8435;52.184;5.406;2022-07-04T13:42:01;1.02;;;1.00;;
16642;SDS011;8435;52.184;5.406;2022-07-04T13:44:28;1.80;;;1.02;;
16642;SDS011;8435;52.184;5.406;2022-07-04T13:46:55;3.22;;;1.02;;
16642;SDS011;8435;52.184;5.406;2022-07-04T13:49:23;1.08;;;1.00;;
16642;SDS011;8435;52.184;5.406;2022-07-04T13:51:50;0.80;;;0.80;;
16642;SDS011;8435;52.184;5.406;2022-07-04T13:54:17;1.20;;;1.10;;
16642;SDS011;8435;52.184;5.406;2022-07-04T13:56:44;1.35;;;1.00;;
16642;SDS011;8435;52.184;5.406;2022-07-04T13:59:12;1.50;;;0.90;;
16642;SDS011;8435;52.184;5.406;2022-07-04T14:01:39;0.95;;;0.90;;
16642;SDS011;8435;52.184;5.406;2022-07-04T14:04:06;0.90;;;0.90;;
16642;SDS011;8435;52.184;5.406;2022-07-04T14:06:33;1.05;;;0.88;;
16642;SDS011;8435;52.184;5.406;2022-07-04T14:08:59;2.17;;;0.98;;
16642;SDS011;8435;52.184;5.406;2022-07-04T14:11:26;1.08;;;1.00;;
16642;SDS011;8435;52.184;5.406;2022-07-04T14:13:53;2.15;;;0.90;;
16642;SDS011;8435;52.184;5.406;2022-07-04T14:16:21;2.30;;;0.90;;
16642;SDS011;8435;52.184;5.406;2022-07-04T14:18:48;1.00;;;0.90;;
16642;SDS011;8435;52.184;5.406;2022-07-04T14:21:15;1.02;;;1.02;;
16642;SDS011;8435;52.184;5.406;2022-07-04T14:23:42;1.13;;;1.02;;
16642;SDS011;8435;52.184;5.406;2022-07-04T14:26:11;1.20;;;1.10;;
16642;SDS011;8435;52.184;5.406;2022-07-04T14:28:39;0.90;;;0.90;;
16642;SDS011;8435;52.184;5.406;2022-07-04T14:31:06;1.67;;;0.80;;
16642;SDS011;8435;52.184;5.406;2022-07-04T14:33:34;1.23;;;1.13;;
16642;SDS011;8435;52.184;5.406;2022-07-04T14:36:01;1.20;;;1.00;;
16642;SDS011;8435;52.184;5.406;2022-07-04T14:38:28;0.98;;;0.90;;
16642;SDS011;8435;52.184;5.406;2022-07-04T14:40:55;1.13;;;1.08;;
16642;SDS011;8435;52.184;5.406;2022-07-04T14:43:34;1.38;;;0.93;;
16642;SDS011;8435;52.184;5.406;2022-07-04T14:46:02;1.60;;;1.00;;
16642;SDS011;8435;52.184;5.406;2022-07-04T14:48:30;1.25;;;0.90;;
16642;SDS011;8435;52.184;5.406;2022-07-04T14:50:58;1.23;;;1.00;;
16642;SDS011;8435;52.184;5.406;2022-07-04T14:53:25;1.42;;;1.33;;
16642;SDS011;8435;52.184;5.406;2022-07-04T14:55:52;0.90;;;0.90;;
16642;SDS011;8435;52.184;5.406;2022-07-04T14:58:19;1.17;;;1.10;;
16642;SDS011;8435;52.184;5.406;2022-07-04T15:00:46;1.17;;;1.02;;
16642;SDS011;8435;52.184;5.406;2022-07-04T15:03:13;1.15;;;1.05;;
16642;SDS011;8435;52.184;5.406;2022-07-04T15:05:41;2.38;;;1.13;;
16642;SDS011;8435;52.184;5.406;2022-07-04T15:08:10;1.85;;;1.00;;
16642;SDS011;8435;52.184;5.406;2022-07-04T15:10:37;1.95;;;1.40;;
16642;SDS011;8435;52.184;5.406;2022-07-04T15:13:04;1.05;;;1.00;;
16642;SDS011;8435;52.184;5.406;2022-07-04T15:15:30;1.00;;;1.00;;
16642;SDS011;8435;52.184;5.406;2022-07-04T15:17:57;1.17;;;1.08;;